Terminal Aerodrome Forecast
Issued by NWS Upton, NY

Home | Current Version | Previous Version | Text Only | Print | Product List | Glossary On
Versions: 1 2 3 4 5 6 7 8 9 10 11 12 13 14 15 16 17 18 19 20 21 22 23 24 25 26 27 28 29 30 31
000
FTUS41 KOKX 221725
TAFJFK
TAF
KJFK 221725Z 2218/2324 36016G24KT P6SM BKN050 BKN250
     FM230000 36014KT P6SM BKN050 BKN250
     FM230400 36013KT P6SM FEW030 SCT050
     FM231000 35009KT P6SM FEW030 SCT050
     FM231500 35010KT P6SM FEW250=

USA.gov is the U.S. government's official web portal to all federal, state and local government web resources and services.